sensor_id;sensor_type;location;lat;lon;timestamp;P1;durP1;ratioP1;P2;durP2;ratioP2
45684;SDS011;46836;48.388;16.210;2022-07-23T00:01:28;10.90;;;9.37;;
45684;SDS011;46836;48.388;16.210;2022-07-23T00:03:56;18.57;;;9.17;;
45684;SDS011;46836;48.388;16.210;2022-07-23T00:06:23;10.97;;;8.73;;
45684;SDS011;46836;48.388;16.210;2022-07-23T00:08:51;9.63;;;8.67;;
45684;SDS011;46836;48.388;16.210;2022-07-23T00:11:18;12.10;;;9.50;;
45684;SDS011;46836;48.388;16.210;2022-07-23T00:13:45;12.83;;;8.87;;
45684;SDS011;46836;48.388;16.210;2022-07-23T00:16:12;12.23;;;8.40;;
45684;SDS011;46836;48.388;16.210;2022-07-23T00:18:39;9.60;;;8.70;;
45684;SDS011;46836;48.388;16.210;2022-07-23T00:21:06;9.40;;;8.50;;
45684;SDS011;46836;48.388;16.210;2022-07-23T00:23:33;12.23;;;9.27;;
45684;SDS011;46836;48.388;16.210;2022-07-23T00:26:01;13.63;;;8.90;;
45684;SDS011;46836;48.388;16.210;2022-07-23T00:28:28;9.50;;;8.60;;
45684;SDS011;46836;48.388;16.210;2022-07-23T00:30:55;10.77;;;8.70;;
45684;SDS011;46836;48.388;16.210;2022-07-23T00:33:22;12.50;;;9.33;;
45684;SDS011;46836;48.388;16.210;2022-07-23T00:35:49;10.73;;;9.70;;
45684;SDS011;46836;48.388;16.210;2022-07-23T00:38:16;11.47;;;10.43;;
45684;SDS011;46836;48.388;16.210;2022-07-23T00:40:43;10.43;;;9.53;;
45684;SDS011;46836;48.388;16.210;2022-07-23T00:43:10;10.70;;;9.80;;
45684;SDS011;46836;48.388;16.210;2022-07-23T00:45:37;10.50;;;9.40;;
45684;SDS011;46836;48.388;16.210;2022-07-23T00:48:04;10.33;;;9.33;;
45684;SDS011;46836;48.388;16.210;2022-07-23T00:50:31;10.53;;;9.60;;
45684;SDS011;46836;48.388;16.210;2022-07-23T00:52:58;11.87;;;10.63;;
45684;SDS011;46836;48.388;16.210;2022-07-23T00:55:25;10.33;;;9.40;;
45684;SDS011;46836;48.388;16.210;2022-07-23T00:57:53;10.20;;;9.30;;
45684;SDS011;46836;48.388;16.210;2022-07-23T01:00:21;10.43;;;9.53;;
45684;SDS011;46836;48.388;16.210;2022-07-23T01:02:49;10.83;;;9.93;;
45684;SDS011;46836;48.388;16.210;2022-07-23T01:05:16;11.67;;;9.87;;
45684;SDS011;46836;48.388;16.210;2022-07-23T01:07:49;11.67;;;10.57;;
45684;SDS011;46836;48.388;16.210;2022-07-23T01:10:21;11.47;;;10.30;;
45684;SDS011;46836;48.388;16.210;2022-07-23T01:13:08;10.43;;;9.53;;
45684;SDS011;46836;48.388;16.210;2022-07-23T01:15:37;11.40;;;10.30;;
45684;SDS011;46836;48.388;16.210;2022-07-23T01:18:05;11.03;;;9.90;;
45684;SDS011;46836;48.388;16.210;2022-07-23T01:20:34;11.00;;;10.00;;
45684;SDS011;46836;48.388;16.210;2022-07-23T01:23:01;11.70;;;10.70;;
45684;SDS011;46836;48.388;16.210;2022-07-23T01:25:28;13.13;;;12.00;;
45684;SDS011;46836;48.388;16.210;2022-07-23T01:27:55;14.00;;;12.60;;
45684;SDS011;46836;48.388;16.210;2022-07-23T01:30:22;13.20;;;11.90;;
45684;SDS011;46836;48.388;16.210;2022-07-23T01:32:49;13.97;;;12.60;;
45684;SDS011;46836;48.388;16.210;2022-07-23T01:35:16;12.43;;;11.20;;
45684;SDS011;46836;48.388;16.210;2022-07-23T01:37:43;13.43;;;12.27;;
45684;SDS011;46836;48.388;16.210;2022-07-23T01:40:10;14.90;;;12.30;;
45684;SDS011;46836;48.388;16.210;2022-07-23T01:42:37;16.97;;;12.70;;
45684;SDS011;46836;48.388;16.210;2022-07-23T01:45:05;15.03;;;13.70;;
45684;SDS011;46836;48.388;16.210;2022-07-23T01:47:32;13.80;;;12.50;;
45684;SDS011;46836;48.388;16.210;2022-07-23T01:49:59;14.80;;;13.43;;
45684;SDS011;46836;48.388;16.210;2022-07-23T01:52:26;14.80;;;13.33;;
45684;SDS011;46836;48.388;16.210;2022-07-23T01:54:53;13.93;;;12.63;;
45684;SDS011;46836;48.388;16.210;2022-07-23T01:57:20;16.93;;;13.27;;
45684;SDS011;46836;48.388;16.210;2022-07-23T01:59:47;14.33;;;12.83;;
45684;SDS011;46836;48.388;16.210;2022-07-23T02:02:15;14.93;;;13.23;;
45684;SDS011;46836;48.388;16.210;2022-07-23T02:04:42;14.00;;;12.70;;
45684;SDS011;46836;48.388;16.210;2022-07-23T02:07:09;15.30;;;14.00;;
45684;SDS011;46836;48.388;16.210;2022-07-23T02:09:36;16.93;;;13.77;;
45684;SDS011;46836;48.388;16.210;2022-07-23T02:12:03;15.17;;;13.73;;
45684;SDS011;46836;48.388;16.210;2022-07-23T02:14:31;14.47;;;13.17;;
45684;SDS011;46836;48.388;16.210;2022-07-23T02:16:58;13.60;;;12.27;;
45684;SDS011;46836;48.388;16.210;2022-07-23T02:19:25;14.60;;;11.87;;
45684;SDS011;46836;48.388;16.210;2022-07-23T02:21:52;15.40;;;13.83;;
45684;SDS011;46836;48.388;16.210;2022-07-23T02:24:20;13.90;;;12.60;;
45684;SDS011;46836;48.388;16.210;2022-07-23T02:26:48;13.63;;;12.43;;
45684;SDS011;46836;48.388;16.210;2022-07-23T02:29:15;14.50;;;13.30;;
45684;SDS011;46836;48.388;16.210;2022-07-23T02:31:42;15.30;;;13.80;;
45684;SDS011;46836;48.388;16.210;2022-07-23T02:34:10;14.80;;;13.43;;
45684;SDS011;46836;48.388;16.210;2022-07-23T02:36:38;14.57;;;13.13;;
45684;SDS011;46836;48.388;16.210;2022-07-23T02:39:06;14.50;;;13.20;;
45684;SDS011;46836;48.388;16.210;2022-07-23T02:41:33;13.90;;;12.60;;
45684;SDS011;46836;48.388;16.210;2022-07-23T02:44:00;12.90;;;11.70;;
45684;SDS011;46836;48.388;16.210;2022-07-23T02:46:27;13.23;;;11.93;;
45684;SDS011;46836;48.388;16.210;2022-07-23T02:48:55;12.10;;;11.10;;
45684;SDS011;46836;48.388;16.210;2022-07-23T02:51:22;12.97;;;11.03;;
45684;SDS011;46836;48.388;16.210;2022-07-23T02:53:49;12.97;;;11.77;;
45684;SDS011;46836;48.388;16.210;2022-07-23T02:56:16;13.20;;;11.20;;
45684;SDS011;46836;48.388;16.210;2022-07-23T02:58:43;14.00;;;11.00;;
45684;SDS011;46836;48.388;16.210;2022-07-23T03:01:10;11.83;;;10.63;;
45684;SDS011;46836;48.388;16.210;2022-07-23T03:03:37;14.10;;;12.20;;
45684;SDS011;46836;48.388;16.210;2022-07-23T03:06:04;14.33;;;12.87;;
45684;SDS011;46836;48.388;16.210;2022-07-23T03:08:32;13.07;;;11.60;;
45684;SDS011;46836;48.388;16.210;2022-07-23T03:10:59;13.53;;;12.20;;
45684;SDS011;46836;48.388;16.210;2022-07-23T03:13:26;13.27;;;11.87;;
45684;SDS011;46836;48.388;16.210;2022-07-23T03:15:54;13.43;;;12.13;;
45684;SDS011;46836;48.388;16.210;2022-07-23T03:18:21;13.60;;;12.33;;
45684;SDS011;46836;48.388;16.210;2022-07-23T03:20:48;12.90;;;11.80;;
45684;SDS011;46836;48.388;16.210;2022-07-23T03:23:15;12.13;;;11.07;;
45684;SDS011;46836;48.388;16.210;2022-07-23T03:25:43;12.67;;;11.57;;
45684;SDS011;46836;48.388;16.210;2022-07-23T03:28:18;12.80;;;11.70;;
45684;SDS011;46836;48.388;16.210;2022-07-23T03:30:46;13.07;;;11.87;;
45684;SDS011;46836;48.388;16.210;2022-07-23T03:33:13;14.57;;;11.00;;
45684;SDS011;46836;48.388;16.210;2022-07-23T03:35:43;12.97;;;11.67;;
45684;SDS011;46836;48.388;16.210;2022-07-23T03:38:13;11.93;;;10.83;;
45684;SDS011;46836;48.388;16.210;2022-07-23T03:40:40;13.13;;;11.93;;
45684;SDS011;46836;48.388;16.210;2022-07-23T03:43:07;15.80;;;12.93;;
45684;SDS011;46836;48.388;16.210;2022-07-23T03:45:34;15.47;;;10.50;;
45684;SDS011;46836;48.388;16.210;2022-07-23T03:48:02;12.37;;;11.27;;
45684;SDS011;46836;48.388;16.210;2022-07-23T03:50:29;12.80;;;11.60;;
45684;SDS011;46836;48.388;16.210;2022-07-23T03:52:56;13.73;;;11.27;;
45684;SDS011;46836;48.388;16.210;2022-07-23T03:55:23;12.60;;;11.50;;
45684;SDS011;46836;48.388;16.210;2022-07-23T03:57:50;12.43;;;11.33;;
45684;SDS011;46836;48.388;16.210;2022-07-23T04:00:17;13.20;;;11.93;;
45684;SDS011;46836;48.388;16.210;2022-07-23T04:02:44;13.20;;;11.90;;
45684;SDS011;46836;48.388;16.210;2022-07-23T04:05:11;13.00;;;11.70;;
45684;SDS011;46836;48.388;16.210;2022-07-23T04:07:38;12.47;;;11.27;;
45684;SDS011;46836;48.388;16.210;2022-07-23T04:10:06;12.60;;;11.30;;
45684;SDS011;46836;48.388;16.210;2022-07-23T04:12:34;13.00;;;11.80;;
45684;SDS011;46836;48.388;16.210;2022-07-23T04:15:02;12.70;;;11.50;;
45684;SDS011;46836;48.388;16.210;2022-07-23T04:17:29;12.37;;;11.17;;
45684;SDS011;46836;48.388;16.210;2022-07-23T04:19:56;13.10;;;11.90;;
45684;SDS011;46836;48.388;16.210;2022-07-23T04:22:23;13.30;;;11.93;;
45684;SDS011;46836;48.388;16.210;2022-07-23T04:24:50;13.33;;;12.07;;
45684;SDS011;46836;48.388;16.210;2022-07-23T04:27:17;17.77;;;11.90;;
45684;SDS011;46836;48.388;16.210;2022-07-23T04:29:45;12.70;;;11.40;;
45684;SDS011;46836;48.388;16.210;2022-07-23T04:32:12;13.20;;;11.80;;
45684;SDS011;46836;48.388;16.210;2022-07-23T04:34:39;11.60;;;10.50;;
45684;SDS011;46836;48.388;16.210;2022-07-23T04:37:06;11.90;;;10.70;;
45684;SDS011;46836;48.388;16.210;2022-07-23T04:39:33;13.37;;;12.13;;
45684;SDS011;46836;48.388;16.210;2022-07-23T04:42:00;13.00;;;11.70;;
45684;SDS011;46836;48.388;16.210;2022-07-23T04:44:27;12.57;;;11.50;;
45684;SDS011;46836;48.388;16.210;2022-07-23T04:46:54;13.87;;;12.67;;
45684;SDS011;46836;48.388;16.210;2022-07-23T04:49:21;12.90;;;11.60;;
45684;SDS011;46836;48.388;16.210;2022-07-23T04:51:49;12.53;;;11.43;;
45684;SDS011;46836;48.388;16.210;2022-07-23T04:54:16;14.87;;;11.70;;
45684;SDS011;46836;48.388;16.210;2022-07-23T04:56:44;13.50;;;12.20;;
45684;SDS011;46836;48.388;16.210;2022-07-23T04:59:11;12.83;;;11.47;;
45684;SDS011;46836;48.388;16.210;2022-07-23T05:01:38;15.23;;;10.80;;
45684;SDS011;46836;48.388;16.210;2022-07-23T05:04:05;12.63;;;11.50;;
45684;SDS011;46836;48.388;16.210;2022-07-23T05:06:32;12.93;;;11.70;;
45684;SDS011;46836;48.388;16.210;2022-07-23T05:08:59;13.93;;;11.47;;
45684;SDS011;46836;48.388;16.210;2022-07-23T05:11:27;12.10;;;10.93;;
45684;SDS011;46836;48.388;16.210;2022-07-23T05:13:54;11.60;;;10.50;;
45684;SDS011;46836;48.388;16.210;2022-07-23T05:16:21;12.30;;;10.83;;
45684;SDS011;46836;48.388;16.210;2022-07-23T05:18:48;15.23;;;11.10;;
45684;SDS011;46836;48.388;16.210;2022-07-23T05:21:15;12.23;;;10.80;;
45684;SDS011;46836;48.388;16.210;2022-07-23T05:23:42;11.53;;;10.37;;
45684;SDS011;46836;48.388;16.210;2022-07-23T05:26:09;13.63;;;11.20;;
45684;SDS011;46836;48.388;16.210;2022-07-23T05:28:36;12.03;;;11.00;;
45684;SDS011;46836;48.388;16.210;2022-07-23T05:31:04;11.40;;;10.40;;
45684;SDS011;46836;48.388;16.210;2022-07-23T05:33:31;10.47;;;9.67;;
45684;SDS011;46836;48.388;16.210;2022-07-23T05:36:01;11.23;;;10.23;;
45684;SDS011;46836;48.388;16.210;2022-07-23T05:38:29;11.10;;;10.00;;
45684;SDS011;46836;48.388;16.210;2022-07-23T05:40:57;12.23;;;11.13;;
45684;SDS011;46836;48.388;16.210;2022-07-23T05:43:25;11.73;;;10.63;;
45684;SDS011;46836;48.388;16.210;2022-07-23T05:45:53;13.73;;;10.63;;
45684;SDS011;46836;48.388;16.210;2022-07-23T05:48:20;13.10;;;10.77;;
45684;SDS011;46836;48.388;16.210;2022-07-23T05:50:47;11.63;;;10.63;;
45684;SDS011;46836;48.388;16.210;2022-07-23T05:53:15;10.67;;;9.77;;
45684;SDS011;46836;48.388;16.210;2022-07-23T05:55:42;11.53;;;10.43;;
45684;SDS011;46836;48.388;16.210;2022-07-23T05:58:09;10.37;;;9.47;;
45684;SDS011;46836;48.388;16.210;2022-07-23T06:00:36;12.83;;;11.50;;
45684;SDS011;46836;48.388;16.210;2022-07-23T06:03:03;11.87;;;10.77;;
45684;SDS011;46836;48.388;16.210;2022-07-23T06:05:30;13.23;;;11.30;;
45684;SDS011;46836;48.388;16.210;2022-07-23T06:07:57;12.00;;;10.80;;
45684;SDS011;46836;48.388;16.210;2022-07-23T06:10:25;12.07;;;10.97;;
45684;SDS011;46836;48.388;16.210;2022-07-23T06:12:52;11.80;;;10.70;;
45684;SDS011;46836;48.388;16.210;2022-07-23T06:15:27;12.33;;;11.27;;
45684;SDS011;46836;48.388;16.210;2022-07-23T06:17:54;12.20;;;11.17;;
45684;SDS011;46836;48.388;16.210;2022-07-23T06:20:21;11.90;;;10.80;;
45684;SDS011;46836;48.388;16.210;2022-07-23T06:22:48;13.13;;;11.93;;
45684;SDS011;46836;48.388;16.210;2022-07-23T06:25:15;12.37;;;10.77;;
45684;SDS011;46836;48.388;16.210;2022-07-23T06:27:45;12.80;;;11.70;;
45684;SDS011;46836;48.388;16.210;2022-07-23T06:30:13;14.00;;;10.47;;
45684;SDS011;46836;48.388;16.210;2022-07-23T06:32:44;10.93;;;9.93;;
45684;SDS011;46836;48.388;16.210;2022-07-23T06:35:12;11.10;;;10.10;;
45684;SDS011;46836;48.388;16.210;2022-07-23T06:37:39;11.77;;;10.63;;
45684;SDS011;46836;48.388;16.210;2022-07-23T06:40:06;11.70;;;10.53;;
45684;SDS011;46836;48.388;16.210;2022-07-23T06:42:34;11.30;;;10.30;;
45684;SDS011;46836;48.388;16.210;2022-07-23T06:45:04;10.73;;;9.83;;
45684;SDS011;46836;48.388;16.210;2022-07-23T06:47:32;10.90;;;9.90;;
45684;SDS011;46836;48.388;16.210;2022-07-23T06:50:00;11.00;;;10.00;;
45684;SDS011;46836;48.388;16.210;2022-07-23T06:52:27;10.03;;;9.03;;
45684;SDS011;46836;48.388;16.210;2022-07-23T06:54:54;10.10;;;9.20;;
45684;SDS011;46836;48.388;16.210;2022-07-23T06:57:21;10.83;;;9.83;;
45684;SDS011;46836;48.388;16.210;2022-07-23T06:59:48;9.80;;;8.90;;
45684;SDS011;46836;48.388;16.210;2022-07-23T07:02:21;11.67;;;10.67;;
45684;SDS011;46836;48.388;16.210;2022-07-23T07:04:48;12.17;;;11.00;;
45684;SDS011;46836;48.388;16.210;2022-07-23T07:07:15;11.20;;;10.13;;
45684;SDS011;46836;48.388;16.210;2022-07-23T07:09:42;11.50;;;10.27;;
45684;SDS011;46836;48.388;16.210;2022-07-23T07:12:13;11.90;;;10.80;;
45684;SDS011;46836;48.388;16.210;2022-07-23T07:14:40;11.53;;;10.33;;
45684;SDS011;46836;48.388;16.210;2022-07-23T07:17:07;11.70;;;10.47;;
45684;SDS011;46836;48.388;16.210;2022-07-23T07:19:37;12.33;;;11.03;;
45684;SDS011;46836;48.388;16.210;2022-07-23T07:22:04;12.23;;;10.20;;
45684;SDS011;46836;48.388;16.210;2022-07-23T07:24:31;10.33;;;9.43;;
45684;SDS011;46836;48.388;16.210;2022-07-23T07:27:03;10.50;;;9.60;;
45684;SDS011;46836;48.388;16.210;2022-07-23T07:29:31;10.13;;;9.27;;
45684;SDS011;46836;48.388;16.210;2022-07-23T07:31:59;11.87;;;9.70;;
45684;SDS011;46836;48.388;16.210;2022-07-23T07:34:26;9.47;;;8.67;;
45684;SDS011;46836;48.388;16.210;2022-07-23T07:36:53;9.80;;;8.80;;
45684;SDS011;46836;48.388;16.210;2022-07-23T07:39:20;11.30;;;8.03;;
45684;SDS011;46836;48.388;16.210;2022-07-23T07:41:47;8.97;;;8.10;;
45684;SDS011;46836;48.388;16.210;2022-07-23T07:44:15;9.17;;;8.27;;
45684;SDS011;46836;48.388;16.210;2022-07-23T07:46:42;9.87;;;7.57;;
45684;SDS011;46836;48.388;16.210;2022-07-23T07:49:10;8.70;;;7.90;;
45684;SDS011;46836;48.388;16.210;2022-07-23T07:51:41;8.97;;;7.57;;
45684;SDS011;46836;48.388;16.210;2022-07-23T07:54:11;7.73;;;7.03;;
45684;SDS011;46836;48.388;16.210;2022-07-23T07:56:39;8.67;;;7.87;;
45684;SDS011;46836;48.388;16.210;2022-07-23T07:59:07;7.90;;;7.30;;
45684;SDS011;46836;48.388;16.210;2022-07-23T08:01:36;8.10;;;7.30;;
45684;SDS011;46836;48.388;16.210;2022-07-23T08:04:03;7.03;;;6.33;;
45684;SDS011;46836;48.388;16.210;2022-07-23T08:06:31;12.53;;;7.47;;
45684;SDS011;46836;48.388;16.210;2022-07-23T08:08:58;8.70;;;7.70;;
45684;SDS011;46836;48.388;16.210;2022-07-23T08:11:25;7.93;;;7.23;;
45684;SDS011;46836;48.388;16.210;2022-07-23T08:13:52;6.93;;;6.33;;
45684;SDS011;46836;48.388;16.210;2022-07-23T08:16:19;10.83;;;7.17;;
45684;SDS011;46836;48.388;16.210;2022-07-23T08:18:46;8.13;;;7.33;;
45684;SDS011;46836;48.388;16.210;2022-07-23T08:21:14;8.63;;;7.70;;
45684;SDS011;46836;48.388;16.210;2022-07-23T08:23:41;7.87;;;7.03;;
45684;SDS011;46836;48.388;16.210;2022-07-23T08:26:08;8.27;;;6.57;;
45684;SDS011;46836;48.388;16.210;2022-07-23T08:28:35;8.10;;;7.40;;
45684;SDS011;46836;48.388;16.210;2022-07-23T08:31:02;7.13;;;6.53;;
45684;SDS011;46836;48.388;16.210;2022-07-23T08:33:32;7.03;;;6.53;;
45684;SDS011;46836;48.388;16.210;2022-07-23T08:36:00;7.80;;;7.10;;
45684;SDS011;46836;48.388;16.210;2022-07-23T08:38:30;7.77;;;6.33;;
45684;SDS011;46836;48.388;16.210;2022-07-23T08:40:58;7.00;;;6.40;;
45684;SDS011;46836;48.388;16.210;2022-07-23T08:43:29;8.47;;;7.07;;
45684;SDS011;46836;48.388;16.210;2022-07-23T08:45:58;6.50;;;6.00;;
45684;SDS011;46836;48.388;16.210;2022-07-23T08:48:28;8.17;;;7.30;;
45684;SDS011;46836;48.388;16.210;2022-07-23T08:51:00;7.60;;;7.00;;
45684;SDS011;46836;48.388;16.210;2022-07-23T08:53:29;7.47;;;6.77;;
45684;SDS011;46836;48.388;16.210;2022-07-23T08:55:58;7.93;;;7.13;;
45684;SDS011;46836;48.388;16.210;2022-07-23T08:58:28;9.20;;;6.87;;
45684;SDS011;46836;48.388;16.210;2022-07-23T09:00:56;7.37;;;6.77;;
45684;SDS011;46836;48.388;16.210;2022-07-23T09:03:26;7.40;;;6.57;;
45684;SDS011;46836;48.388;16.210;2022-07-23T09:05:58;8.80;;;7.23;;
45684;SDS011;46836;48.388;16.210;2022-07-23T09:08:34;7.97;;;7.17;;
45684;SDS011;46836;48.388;16.210;2022-07-23T09:11:05;7.80;;;6.93;;
45684;SDS011;46836;48.388;16.210;2022-07-23T09:13:36;7.93;;;7.23;;
45684;SDS011;46836;48.388;16.210;2022-07-23T09:16:28;7.57;;;6.87;;
45684;SDS011;46836;48.388;16.210;2022-07-23T09:19:01;8.03;;;6.50;;
45684;SDS011;46836;48.388;16.210;2022-07-23T09:21:32;8.47;;;7.77;;
45684;SDS011;46836;48.388;16.210;2022-07-23T09:29:17;12.93;;;7.60;;
45684;SDS011;46836;48.388;16.210;2022-07-23T09:31:47;7.70;;;7.10;;
45684;SDS011;46836;48.388;16.210;2022-07-23T09:34:22;8.40;;;7.60;;
45684;SDS011;46836;48.388;16.210;2022-07-23T09:36:52;8.07;;;7.37;;
45684;SDS011;46836;48.388;16.210;2022-07-23T09:39:30;9.13;;;7.70;;
45684;SDS011;46836;48.388;16.210;2022-07-23T09:42:15;9.80;;;8.40;;
45684;SDS011;46836;48.388;16.210;2022-07-23T09:44:47;7.10;;;6.60;;
45684;SDS011;46836;48.388;16.210;2022-07-23T09:47:19;8.00;;;7.20;;
45684;SDS011;46836;48.388;16.210;2022-07-23T09:52:32;8.40;;;7.60;;
45684;SDS011;46836;48.388;16.210;2022-07-23T09:55:05;9.10;;;7.60;;
45684;SDS011;46836;48.388;16.210;2022-07-23T09:57:33;8.00;;;7.30;;
45684;SDS011;46836;48.388;16.210;2022-07-23T10:00:02;8.20;;;7.50;;
45684;SDS011;46836;48.388;16.210;2022-07-23T10:02:32;8.50;;;7.70;;
45684;SDS011;46836;48.388;16.210;2022-07-23T10:05:00;8.23;;;7.43;;
45684;SDS011;46836;48.388;16.210;2022-07-23T10:07:31;9.23;;;7.67;;
45684;SDS011;46836;48.388;16.210;2022-07-23T10:10:02;16.80;;;8.63;;
45684;SDS011;46836;48.388;16.210;2022-07-23T10:12:30;10.83;;;7.47;;
45684;SDS011;46836;48.388;16.210;2022-07-23T10:15:01;7.87;;;7.27;;
45684;SDS011;46836;48.388;16.210;2022-07-23T10:17:28;9.60;;;7.90;;
45684;SDS011;46836;48.388;16.210;2022-07-23T10:19:56;8.67;;;7.87;;
45684;SDS011;46836;48.388;16.210;2022-07-23T10:22:24;7.87;;;7.27;;
45684;SDS011;46836;48.388;16.210;2022-07-23T10:25:59;8.87;;;8.07;;
45684;SDS011;46836;48.388;16.210;2022-07-23T10:28:00;8.97;;;8.17;;
45684;SDS011;46836;48.388;16.210;2022-07-23T10:33:23;8.97;;;8.10;;
45684;SDS011;46836;48.388;16.210;2022-07-23T10:36:21;9.53;;;8.73;;
45684;SDS011;46836;48.388;16.210;2022-07-23T10:41:36;9.37;;;8.43;;
45684;SDS011;46836;48.388;16.210;2022-07-23T10:50:01;8.00;;;7.30;;
45684;SDS011;46836;48.388;16.210;2022-07-23T10:58:08;8.97;;;8.27;;
45684;SDS011;46836;48.388;16.210;2022-07-23T11:00:35;9.20;;;8.37;;
45684;SDS011;46836;48.388;16.210;2022-07-23T11:03:27;10.17;;;8.63;;
45684;SDS011;46836;48.388;16.210;2022-07-23T11:06:03;8.90;;;8.10;;
45684;SDS011;46836;48.388;16.210;2022-07-23T11:08:30;10.10;;;9.37;;
45684;SDS011;46836;48.388;16.210;2022-07-23T11:21:39;9.53;;;8.60;;
45684;SDS011;46836;48.388;16.210;2022-07-23T11:24:03;9.20;;;8.20;;
45684;SDS011;46836;48.388;16.210;2022-07-23T11:34:50;8.30;;;7.60;;
45684;SDS011;46836;48.388;16.210;2022-07-23T11:37:31;8.70;;;8.00;;
45684;SDS011;46836;48.388;16.210;2022-07-23T11:39:58;8.00;;;7.30;;
45684;SDS011;46836;48.388;16.210;2022-07-23T11:42:26;9.97;;;9.10;;
45684;SDS011;46836;48.388;16.210;2022-07-23T11:44:56;8.70;;;7.83;;
45684;SDS011;46836;48.388;16.210;2022-07-23T11:47:25;8.70;;;8.10;;
45684;SDS011;46836;48.388;16.210;2022-07-23T11:52:21;8.83;;;8.03;;
45684;SDS011;46836;48.388;16.210;2022-07-23T11:54:54;8.90;;;8.20;;
45684;SDS011;46836;48.388;16.210;2022-07-23T11:57:30;8.60;;;7.70;;
45684;SDS011;46836;48.388;16.210;2022-07-23T12:00:32;9.00;;;8.10;;
45684;SDS011;46836;48.388;16.210;2022-07-23T12:02:55;8.60;;;7.90;;
45684;SDS011;46836;48.388;16.210;2022-07-23T12:05:29;8.87;;;8.13;;
45684;SDS011;46836;48.388;16.210;2022-07-23T12:07:59;9.90;;;9.10;;
45684;SDS011;46836;48.388;16.210;2022-07-23T12:10:37;8.50;;;7.60;;
45684;SDS011;46836;48.388;16.210;2022-07-23T12:13:08;8.00;;;7.20;;
45684;SDS011;46836;48.388;16.210;2022-07-23T12:15:40;8.00;;;7.40;;
45684;SDS011;46836;48.388;16.210;2022-07-23T12:18:12;7.97;;;7.37;;
45684;SDS011;46836;48.388;16.210;2022-07-23T12:20:47;8.17;;;7.53;;
45684;SDS011;46836;48.388;16.210;2022-07-23T12:23:17;8.33;;;7.63;;
45684;SDS011;46836;48.388;16.210;2022-07-23T12:25:47;8.27;;;7.57;;
45684;SDS011;46836;48.388;16.210;2022-07-23T12:28:16;7.97;;;7.37;;
45684;SDS011;46836;48.388;16.210;2022-07-23T12:30:51;7.80;;;7.10;;
45684;SDS011;46836;48.388;16.210;2022-07-23T12:33:27;8.60;;;8.00;;
45684;SDS011;46836;48.388;16.210;2022-07-23T12:35:57;7.40;;;6.80;;
45684;SDS011;46836;48.388;16.210;2022-07-23T12:38:27;9.90;;;7.20;;
45684;SDS011;46836;48.388;16.210;2022-07-23T12:41:02;8.53;;;6.20;;
45684;SDS011;46836;48.388;16.210;2022-07-23T12:43:32;6.60;;;6.07;;
45684;SDS011;46836;48.388;16.210;2022-07-23T12:48:33;5.73;;;5.20;;
45684;SDS011;46836;48.388;16.210;2022-07-23T12:51:06;6.83;;;5.00;;
45684;SDS011;46836;48.388;16.210;2022-07-23T12:56:16;7.27;;;5.10;;
45684;SDS011;46836;48.388;16.210;2022-07-23T12:58:47;5.20;;;4.30;;
45684;SDS011;46836;48.388;16.210;2022-07-23T13:03:57;9.70;;;5.17;;
45684;SDS011;46836;48.388;16.210;2022-07-23T13:06:49;5.20;;;4.80;;
45684;SDS011;46836;48.388;16.210;2022-07-23T13:09:18;5.20;;;4.73;;
45684;SDS011;46836;48.388;16.210;2022-07-23T13:11:48;5.80;;;5.40;;
45684;SDS011;46836;48.388;16.210;2022-07-23T13:14:17;5.77;;;5.20;;
45684;SDS011;46836;48.388;16.210;2022-07-23T13:17:05;5.00;;;4.60;;
45684;SDS011;46836;48.388;16.210;2022-07-23T13:19:33;5.07;;;4.67;;
45684;SDS011;46836;48.388;16.210;2022-07-23T13:22:00;3.67;;;3.40;;
45684;SDS011;46836;48.388;16.210;2022-07-23T13:24:34;5.30;;;3.97;;
45684;SDS011;46836;48.388;16.210;2022-07-23T13:27:04;4.00;;;3.70;;
45684;SDS011;46836;48.388;16.210;2022-07-23T13:29:33;4.40;;;4.10;;
45684;SDS011;46836;48.388;16.210;2022-07-23T13:32:02;4.20;;;3.80;;
45684;SDS011;46836;48.388;16.210;2022-07-23T13:34:38;5.33;;;3.47;;
45684;SDS011;46836;48.388;16.210;2022-07-23T13:37:07;3.97;;;3.57;;
45684;SDS011;46836;48.388;16.210;2022-07-23T13:39:34;3.87;;;3.63;;
45684;SDS011;46836;48.388;16.210;2022-07-23T13:42:04;4.37;;;4.07;;
45684;SDS011;46836;48.388;16.210;2022-07-23T13:44:32;4.20;;;3.63;;
45684;SDS011;46836;48.388;16.210;2022-07-23T13:46:59;5.40;;;3.90;;
45684;SDS011;46836;48.388;16.210;2022-07-23T13:49:27;4.07;;;3.77;;
45684;SDS011;46836;48.388;16.210;2022-07-23T13:51:54;3.87;;;3.57;;
45684;SDS011;46836;48.388;16.210;2022-07-23T13:54:22;4.47;;;3.83;;
45684;SDS011;46836;48.388;16.210;2022-07-23T13:56:49;3.73;;;3.43;;
45684;SDS011;46836;48.388;16.210;2022-07-23T13:59:16;4.40;;;3.30;;
45684;SDS011;46836;48.388;16.210;2022-07-23T14:01:43;3.50;;;3.27;;
45684;SDS011;46836;48.388;16.210;2022-07-23T14:04:31;3.50;;;3.30;;
45684;SDS011;46836;48.388;16.210;2022-07-23T14:06:59;3.10;;;2.90;;
45684;SDS011;46836;48.388;16.210;2022-07-23T14:09:28;3.50;;;3.20;;
45684;SDS011;46836;48.388;16.210;2022-07-23T14:11:56;3.60;;;3.30;;
45684;SDS011;46836;48.388;16.210;2022-07-23T14:14:24;3.83;;;3.53;;
45684;SDS011;46836;48.388;16.210;2022-07-23T14:16:51;7.43;;;3.10;;
45684;SDS011;46836;48.388;16.210;2022-07-23T14:19:18;2.87;;;2.67;;
45684;SDS011;46836;48.388;16.210;2022-07-23T14:21:45;3.73;;;3.43;;
45684;SDS011;46836;48.388;16.210;2022-07-23T14:24:15;3.60;;;3.30;;
45684;SDS011;46836;48.388;16.210;2022-07-23T14:26:44;4.77;;;3.20;;
45684;SDS011;46836;48.388;16.210;2022-07-23T14:29:12;5.33;;;3.83;;
45684;SDS011;46836;48.388;16.210;2022-07-23T14:31:39;4.00;;;3.60;;
45684;SDS011;46836;48.388;16.210;2022-07-23T14:34:07;7.60;;;3.40;;
45684;SDS011;46836;48.388;16.210;2022-07-23T14:36:34;3.60;;;3.30;;
45684;SDS011;46836;48.388;16.210;2022-07-23T14:39:05;4.90;;;3.70;;
45684;SDS011;46836;48.388;16.210;2022-07-23T14:41:36;3.90;;;3.60;;
45684;SDS011;46836;48.388;16.210;2022-07-23T14:44:03;4.90;;;3.93;;
45684;SDS011;46836;48.388;16.210;2022-07-23T14:46:31;4.77;;;4.37;;
45684;SDS011;46836;48.388;16.210;2022-07-23T14:48:58;3.83;;;3.53;;
45684;SDS011;46836;48.388;16.210;2022-07-23T14:51:26;4.93;;;4.27;;
45684;SDS011;46836;48.388;16.210;2022-07-23T14:53:54;4.13;;;3.73;;
45684;SDS011;46836;48.388;16.210;2022-07-23T14:56:21;4.30;;;4.00;;
45684;SDS011;46836;48.388;16.210;2022-07-23T14:58:48;5.13;;;4.73;;
45684;SDS011;46836;48.388;16.210;2022-07-23T15:01:16;5.87;;;4.70;;
45684;SDS011;46836;48.388;16.210;2022-07-23T15:03:43;5.40;;;4.70;;
45684;SDS011;46836;48.388;16.210;2022-07-23T15:06:10;5.37;;;4.87;;
45684;SDS011;46836;48.388;16.210;2022-07-23T15:08:38;5.60;;;5.17;;
45684;SDS011;46836;48.388;16.210;2022-07-23T15:11:06;5.27;;;4.77;;
45684;SDS011;46836;48.388;16.210;2022-07-23T15:13:36;5.13;;;4.63;;
45684;SDS011;46836;48.388;16.210;2022-07-23T15:16:04;5.20;;;4.80;;
45684;SDS011;46836;48.388;16.210;2022-07-23T15:18:35;7.60;;;4.90;;
45684;SDS011;46836;48.388;16.210;2022-07-23T15:21:03;6.70;;;5.10;;
45684;SDS011;46836;48.388;16.210;2022-07-23T15:23:32;6.03;;;4.87;;
45684;SDS011;46836;48.388;16.210;2022-07-23T15:26:01;6.97;;;4.50;;
45684;SDS011;46836;48.388;16.210;2022-07-23T15:28:28;4.87;;;4.30;;